Mekoryuk, Alaska
Current Conditions -  °F | °C
As of 10:00 AM on Tuesday 21 Oct 2014 (Local Time) from PAMY Reporting Station
Overcast Overcast  
Wind Chill: 22°   Ceiling: 1100
Heat Index: 34°   Visibility: 4mi
Dew Point: 25°   Wind: 22mph
Humidity: 70%   Direction: 360°N
Pressure: 29.36"   Gusts: 25mph
Location:  60.39°N, 166.19°W
Report Text: PAMY 211800Z 36019G22KT 4SM BKN011 BKN016 OVC021 01/M04 A2936 RMK VIA PHONE
Loading
Personal Weather Stations






























Interactive Weather Map New forecast layout! Learn more

10-Day Weather Forecast

Advertisements
Track Severe Weather on mobile